Latest Weather Observations for Melbourne Airport

IDV60901

Issued at 3:01 pm EDT Friday 27 February 2015 (issued every 10 minutes, with the page automatically refreshed every 10 minutes)

About weather observations | Map of Melbourne area stations | Latest observations for Melbourne area | Other Formats
Station Details ID: 086282 Name: MELBOURNE AIRPORT Lat: -37.67 Lon: 144.83 Height: 113.4 m
Data from the previous 72 hours. | See also: Recent months at Melbourne Airport
Date/Time
EDT
Tmp

°C
App
Tmp
°C
Dew
Point
°C
Rel
Hum
%
Delta-T

°C
Wind Press
QNH
hPa
Press
MSL
hPa
Rain
since
9 am
mm
Dir
 
Spd
km/h
Gust
km/h
Spd
kts
Gust
kts
27/02:30pm 24.6 23.1 10.7 41 7.8 SSE 9 20 5 11 1009.7 1009.3 0.0
27/02:00pm 24.4 22.1 10.6 41 7.7 SW 13 26 7 14 1010.3 1009.9 0.0
27/01:00pm 23.0 21.9 10.6 45 6.9 ESE 7 17 4 9 1010.8 1010.4 0.0
27/12:30pm 22.1 20.0 11.2 50 6.1 SSW 13 22 7 12 1011.3 1010.9 0.0
27/12:00pm 20.5 19.4 10.6 53 5.4 SSE 7 15 4 8 1011.4 1011.0 0.0
27/11:30am 21.2 20.2 12.4 57 5.0 SSE 9 19 5 10 1011.6 1011.2 0.0
27/11:00am 19.6 17.9 12.3 62 4.1 SSW 13 17 7 9 1012.0 1011.6 0.0
27/10:30am 19.0 18.0 12.4 65 3.7 S 9 15 5 8 1011.8 1011.4 0.0
27/10:00am 18.8 17.5 12.6 67 3.5 S 11 15 6 8 1011.6 1011.2 0.0
27/09:30am 17.3 17.2 13.8 80 2.0 SW 7 9 4 5 1011.6 1011.2 0.0
27/09:00am 17.0 16.3 14.2 83 1.6 WSW 11 13 6 7 1011.5 1011.1 0.0
27/08:30am 17.2 17.4 14.1 82 1.8 NNW 6 9 3 5 1011.3 1010.9 0.0
27/08:00am 16.3 17.0 14.4 88 1.1 WNW 4 9 2 5 1011.3 1010.9 0.0
27/07:30am 14.8 15.2 13.7 93 0.6 N 4 7 2 4 1010.9 1010.5 0.0
27/07:00am 13.9 13.1 13.0 94 0.5 N 9 11 5 6 1010.5 1010.1 0.0
27/06:30am 13.9 13.1 13.0 94 0.5 N 9 9 5 5 1010.3 1009.9 0.0
27/05:30am 13.8 12.2 12.9 94 0.5 WNW 13 13 7 7 1010.4 1010.0 0.0
27/05:00am 14.3 15.1 12.7 90 0.9 CALM 0 0 0 0 1010.3 1009.9 0.0
27/04:30am 15.1 14.7 12.9 87 1.2 NE 7 9 4 5 1010.3 1009.9 0.0
27/04:00am 15.9 15.6 13.2 84 1.5 E 7 9 4 5 1010.5 1010.1 0.0
27/03:30am 17.0 17.0 13.7 81 1.9 S 6 7 3 4 1011.2 1010.8 0.0
27/03:00am 17.2 17.0 13.5 79 2.1 SE 7 11 4 6 1011.3 1010.9 0.0
27/02:30am 17.2 16.5 13.1 77 2.3 ENE 9 11 5 6 1011.1 1010.7 0.0
27/02:00am 17.4 16.4 13.3 77 2.3 E 11 15 6 8 1011.2 1010.8 0.0
27/01:30am 17.5 17.4 14.0 80 2.0 S 7 11 4 6 1011.5 1011.1 0.0
27/01:00am 17.7 16.4 13.7 77 2.3 SSE 13 15 7 8 1011.6 1011.2 0.0
27/12:30am 17.6 17.1 13.7 78 2.2 S 9 13 5 7 1012.0 1011.6 0.0
 
Date/Time
EDT
Tmp

°C
App
Tmp
°C
Dew
Point
°C
Rel
Hum
%
Delta-T

°C
Wind Press
QNH
hPa
Press
MSL
hPa
Rain
since
9 am
mm
Dir
 
Spd
km/h
Gust
km/h
Spd
kts
Gust
kts
26/11:30pm 17.4 16.7 14.3 82 1.8 S 11 15 6 8 1012.1 1011.7 0.0
26/11:00pm 17.8 16.3 14.2 79 2.1 S 15 22 8 12 1012.0 1011.6 0.0
26/10:30pm 17.7 17.0 14.4 81 1.9 S 11 15 6 8 1012.1 1011.7 0.0
26/10:00pm 17.8 16.3 14.2 79 2.1 SSW 15 19 8 10 1012.1 1011.7 0.0
26/09:00pm 18.1 15.6 13.5 74 2.6 S 19 26 10 14 1011.7 1011.3 0.0
26/08:00pm 19.2 16.8 12.8 66 3.6 S 17 20 9 11 1010.6 1010.2 0.0
26/07:30pm 19.5 16.9 13.8 69 3.3 S 20 26 11 14 1010.3 1009.9 0.0
26/07:00pm 20.6 17.7 13.9 65 3.9 S 22 26 12 14 1009.9 1009.5 0.0
26/06:30pm 21.4 18.9 14.2 63 4.2 S 20 28 11 15 1009.7 1009.3 0.0
26/05:30pm 22.3 20.0 14.1 59 4.8 SSE 19 26 10 14 1009.4 1009.0 0.0
26/05:00pm 22.6 20.2 13.9 58 5.1 S 19 28 10 15 1009.6 1009.2 0.0
26/04:30pm 22.7 19.5 13.2 55 5.5 SSE 22 32 12 17 1009.6 1009.2 0.0
26/04:00pm 23.6 20.5 13.5 53 5.9 SSE 22 32 12 17 1009.8 1009.4 0.0
26/03:30pm 22.9 19.5 13.7 56 5.4 SE 24 32 13 17 1010.1 1009.7 0.0
26/03:00pm 24.6 22.4 14.4 53 6.1 SSE 19 28 10 15 1010.2 1009.8 0.0
26/02:30pm 22.9 20.1 14.3 58 5.1 SE 22 30 12 16 1010.5 1010.1 0.0
26/02:00pm 24.0 21.7 14.2 54 5.8 S 19 33 10 18 1010.6 1010.2 0.0
26/01:30pm 23.6 21.4 14.3 56 5.5 S 19 30 10 16 1010.7 1010.3 0.0
26/01:00pm 23.4 20.8 13.1 52 6.0 S 19 30 10 16 1011.0 1010.6 0.0
26/12:30pm 23.1 21.0 13.7 55 5.5 SSW 17 28 9 15 1011.0 1010.6 0.0
26/12:00pm 21.8 20.1 13.5 59 4.8 S 15 20 8 11 1011.2 1010.8 0.0
26/11:30am 21.8 20.1 13.5 59 4.8 SW 15 22 8 12 1011.5 1011.1 0.0
26/11:00am 20.8 20.4 14.1 65 3.9 SSW 9 15 5 8 1011.3 1010.9 0.0
26/10:30am 19.5 18.1 13.4 68 3.5 SW 13 19 7 10 1011.5 1011.1 0.0
26/10:00am 18.2 16.9 13.7 75 2.6 SW 13 19 7 10 1011.5 1011.1 0.0
26/09:30am 17.7 16.9 13.9 78 2.2 WSW 11 15 6 8 1011.2 1010.8 0.0
26/09:00am 16.9 16.6 14.3 85 1.5 W 9 13 5 7 1011.3 1010.9 0.0
26/08:30am 16.5 16.0 13.9 84 1.5 WSW 9 9 5 5 1011.0 1010.6 0.0
26/08:00am 16.4 15.2 13.9 85 1.4 SW 13 24 7 13 1011.0 1010.6 0.0
26/07:30am 16.3 14.9 14.4 88 1.1 WSW 15 22 8 12 1010.6 1010.2 0.0
26/07:00am 16.2 17.6 14.5 90 1.0 CALM 0 6 0 3 1010.2 1009.8 0.0
26/06:30am 16.2 15.9 14.5 90 1.0 NNW 9 11 5 6 1009.8 1009.4 0.0
26/06:00am 16.4 16.6 14.3 87 1.2 WNW 6 9 3 5 1009.1 1008.8 0.0
26/05:30am 16.1 15.8 14.4 90 1.0 WNW 9 11 5 6 1009.1 1008.8 0.0
26/05:00am 16.3 17.6 14.2 87 1.2 CALM 0 2 0 1 1009.1 1008.8 0.0
26/04:30am 16.6 16.6 14.3 86 1.3 WNW 7 9 4 5 1009.4 1009.0 0.0
26/04:00am 16.4 16.4 14.3 87 1.2 NW 7 9 4 5 1009.5 1009.1 0.0
26/03:30am 16.1 16.2 14.4 90 1.0 W 7 9 4 5 1009.4 1009.0 0.0
26/03:00am 16.8 15.9 14.9 88 1.1 W 13 17 7 9 1009.6 1009.2 0.0
26/02:30am 17.3 16.5 15.1 87 1.3 WSW 13 15 7 8 1009.7 1009.3 0.0
26/02:00am 17.1 16.6 15.0 87 1.2 W 11 15 6 8 1010.1 1009.7 0.0
26/01:30am 17.1 15.9 15.0 87 1.2 W 15 19 8 10 1010.2 1009.8 0.0
26/01:00am 17.4 16.1 14.8 85 1.5 W 15 17 8 9 1010.1 1009.7 0.0
26/12:30am 17.8 16.5 14.7 82 1.8 WNW 15 19 8 10 1010.0 1009.6 0.0
26/12:00am 18.4 17.2 15.0 80 2.0 WNW 15 17 8 9 1010.2 1009.8 0.0
 
Date/Time
EDT
Tmp

°C
App
Tmp
°C
Dew
Point
°C
Rel
Hum
%
Delta-T

°C
Wind Press
QNH
hPa
Press
MSL
hPa
Rain
since
9 am
mm
Dir
 
Spd
km/h
Gust
km/h
Spd
kts
Gust
kts
25/11:30pm 18.4 17.9 14.8 79 2.1 WNW 11 13 6 7 1010.3 1009.9 0.0
25/11:00pm 18.6 18.0 14.5 77 2.4 W 11 13 6 7 1010.5 1010.1 0.0
25/10:30pm 19.3 18.9 14.1 72 3.0 WSW 9 9 5 5 1010.3 1009.9 0.0
25/10:00pm 20.5 20.6 14.5 68 3.5 S 7 9 4 5 1010.0 1009.6 0.0
25/09:30pm 21.4 21.0 14.0 62 4.3 SSE 9 13 5 7 1010.1 1009.7 0.0
25/09:00pm 22.4 20.9 14.1 59 4.9 SE 15 19 8 10 1009.9 1009.5 0.0
25/08:30pm 22.9 20.8 13.7 56 5.4 SSE 17 19 9 10 1009.8 1009.4 0.0
25/08:00pm 23.5 21.5 13.8 54 5.7 S 17 22 9 12 1009.7 1009.3 0.0
25/07:30pm 24.1 22.2 14.1 53 5.9 S 17 20 9 11 1009.8 1009.4 0.0
25/07:00pm 24.9 21.7 13.1 48 6.9 S 22 28 12 15 1009.9 1009.5 0.0
25/06:30pm 25.3 22.5 13.2 47 7.1 S 20 26 11 14 1009.9 1009.5 0.0
25/06:00pm 25.7 22.8 12.9 45 7.5 S 20 26 11 14 1010.0 1009.6 0.0
25/05:30pm 26.3 23.6 13.0 43 7.8 S 19 26 10 14 1010.0 1009.6 0.0
25/05:00pm 26.4 23.1 12.9 43 7.9 S 22 32 12 17 1010.4 1010.0 0.0
25/04:30pm 26.4 23.6 13.2 44 7.8 SSE 20 32 11 17 1010.6 1010.2 0.0
25/04:00pm 26.3 23.6 12.8 43 7.9 SSE 19 30 10 16 1010.9 1010.5 0.0
25/03:30pm 27.2 25.3 13.1 41 8.3 SSE 15 24 8 13 1011.6 1011.2 0.0
25/03:00pm 25.9 24.3 12.9 44 7.6 SE 13 28 7 15 1012.0 1011.6 0.0
25/02:30pm 25.9 24.0 12.9 44 7.6 S 15 24 8 13 1012.6 1012.2 0.0
25/02:00pm 24.8 23.6 12.9 47 6.9 SSE 11 19 6 10 1013.2 1012.8 0.0
25/01:30pm 23.5 21.9 12.8 51 6.2 SE 13 19 7 10 1013.7 1013.3 0.0
25/01:00pm 23.5 22.8 13.2 52 6.0 WSW 9 15 5 8 1014.3 1013.9 0.0
25/12:30pm 23.1 21.9 12.7 52 6.0 SSW 11 20 6 11 1014.7 1014.3 0.0
25/12:00pm 21.6 20.7 12.5 56 5.2 ESE 9 15 5 8 1014.9 1014.5 0.0
25/11:30am 20.7 19.7 12.4 59 4.7 SE 9 17 5 9 1015.1 1014.7 0.0
25/11:00am 19.8 19.1 12.1 61 4.3 SSW 7 13 4 7 1015.2 1014.8 0.0
25/10:30am 18.6 18.1 12.1 66 3.6 SSW 6 11 3 6 1015.7 1015.3 0.0
25/10:00am 17.2 16.5 12.1 72 2.8 WSW 7 9 4 5 1015.6 1015.2 0.0
25/09:30am 16.4 15.9 12.8 79 2.0 SW 7 9 4 5 1015.8 1015.4 0.0
25/09:00am 15.8 15.4 12.5 81 1.8 SW 6 9 3 5 1015.8 1015.4 0.0
25/08:30am 15.4 16.2 12.5 83 1.6 CALM 0 0 0 0 1015.6 1015.2 0.0
25/08:00am 14.7 15.5 12.7 88 1.1 CALM 0 0 0 0 1015.5 1015.1 0.0
25/07:30am 14.3 15.0 12.3 88 1.1 CALM 0 0 0 0 1015.4 1015.0 0.0
25/07:00am 13.7 14.4 12.2 91 0.8 CALM 0 0 0 0 1015.1 1014.7 0.0
25/06:30am 14.1 14.7 11.9 86 1.2 CALM 0 0 0 0 1015.0 1014.6 0.0
25/06:00am 14.1 13.4 12.1 88 1.1 WSW 7 7 4 4 1014.8 1014.4 0.0
25/05:30am 14.3 13.6 11.9 85 1.3 WNW 7 9 4 5 1014.9 1014.5 0.0
25/05:00am 15.0 14.3 12.1 83 1.6 W 7 11 4 6 1015.0 1014.6 0.0
25/04:30am 15.1 15.3 12.0 82 1.7 SSW 2 7 1 4 1015.0 1014.6 0.0
25/04:00am 15.2 14.1 11.9 81 1.8 SW 9 11 5 6 1015.1 1014.7 0.0
25/03:30am 15.3 14.7 12.4 83 1.6 S 7 11 4 6 1015.3 1014.9 0.0
25/03:00am 15.4 14.3 12.1 81 1.8 S 9 13 5 7 1015.6 1015.2 0.0
25/02:30am 15.5 13.2 11.8 78 2.0 S 15 19 8 10 1015.8 1015.4 0.0
25/02:00am 15.5 12.8 11.8 78 2.0 S 17 22 9 12 1016.1 1015.8 0.0
25/01:30am 15.1 12.9 12.0 82 1.7 S 15 20 8 11 1016.5 1016.2 0.0
25/01:00am 15.1 12.8 11.8 81 1.8 S 15 22 8 12 1016.8 1016.5 0.0
25/12:30am 15.9 12.9 11.9 77 2.2 S 19 22 10 12 1017.1 1016.8 0.0
25/12:00am 16.2 14.2 12.6 79 2.0 SSW 15 19 8 10 1017.5 1017.2 0.0
 
Date/Time
EDT
Tmp

°C
App
Tmp
°C
Dew
Point
°C
Rel
Hum
%
Delta-T

°C
Wind Press
QNH
hPa
Press
MSL
hPa
Rain
since
9 am
mm
Dir
 
Spd
km/h
Gust
km/h
Spd
kts
Gust
kts
24/11:30pm 16.7 14.3 12.6 77 2.3 S 17 22 9 12 1018.2 1017.8 0.0
24/11:00pm 16.7 14.2 12.2 75 2.5 S 17 26 9 14 1018.8 1018.4 0.0
24/10:30pm 16.8 13.1 11.5 71 2.9 S 22 30 12 16 1019.4 1019.0 0.0
24/10:00pm 16.7 13.4 11.6 72 2.8 S 20 32 11 17 1019.7 1019.3 0.0
24/09:30pm 16.6 13.3 11.0 69 3.0 S 19 28 10 15 1019.8 1019.4 0.0
24/09:00pm 16.5 12.5 10.5 67 3.2 S 22 32 12 17 1019.6 1019.2 0.0
24/08:30pm 16.4 12.3 10.2 66 3.3 S 22 32 12 17 1019.4 1019.0 0.0
24/08:00pm 16.3 11.7 9.6 64 3.5 S 24 33 13 18 1019.3 1018.9 0.0
24/07:30pm 16.9 11.4 9.0 59 4.1 SSW 28 35 15 19 1019.2 1018.8 0.0
24/07:00pm 17.0 11.3 8.2 56 4.5 S 28 41 15 22 1019.3 1018.9 0.0
24/06:30pm 17.5 11.7 7.9 53 4.9 S 28 37 15 20 1019.2 1018.8 0.0
24/06:00pm 17.9 12.0 7.7 51 5.2 SSW 28 41 15 22 1019.3 1018.9 0.0
24/05:30pm 18.2 12.3 7.6 50 5.4 S 28 39 15 21 1019.4 1019.0 0.0
24/05:00pm 18.2 12.3 7.3 49 5.5 S 28 37 15 20 1019.3 1018.9 0.0
24/04:31pm 19.1 12.7 7.0 45 6.1 S 30 48 16 26 1019.6 1019.2 0.0
24/04:30pm 19.7 13.3 7.1 44 6.4 S 30 43 16 23 1019.6 1019.2 0.0
24/04:00pm 18.7 11.6 6.2 44 6.2 S 33 43 18 23 1019.4 1019.0 0.0
24/03:30pm 19.4 12.6 6.7 43 6.4 S 32 43 17 23 1019.7 1019.3 0.0

Latest Capital City Observations: Canberra | Sydney | Melbourne | Brisbane | Adelaide | Perth | Hobart | Darwin

Other Formats:

Comma delimited format used in spreadsheet applications
http://www.bom.gov.au/fwo/IDV60901/IDV60901.94866.axf

JavaScript Object Notation format (JSON) in row-major order
http://www.bom.gov.au/fwo/IDV60901/IDV60901.94866.json